Hlavní strana
METAR-TAF:

METAR-TAF

Letiště :

Georgetown, Ascension

zeměpisná šířka: 07-58S, zeměpisná délka: 014-24W, výška: 86 m

Aktuální stav počasí

Zpráva byla vytvořena před 6 hodinami a 28 minutami, v 14:50 UTC
Jihojihovýchodní vítr 16 kt
Teplota 27°C
Vlhkost vzduchu 66%
Tlak 1012 hPa
Viditelnost 10 km a více
Skoro jasno ve výšce 2000 ft

METAR: FHAW 191450Z 15016KT 9999 FEW020 27/20 Q1012 NOSIG RMK BLU BLU

Čas: 21:18 (21:18 UTC)

Předpověď počasí

Zpráva byla vytvořena před 7 hodinami a 48 minutami, v 13:30 UTC
Předpověď platná od 19 v 15 UTC do 20 v 09 UTC
Jihovýchodní vítr 14 kt
Viditelnost 10 km a více
Skoro jasno ve výšce 1800 ft
Polojasno ve výšce 3500 ft
Dočasný
od 19 v 15 UTC do 19 v 18 UTC
Polojasno ve výšce 1800 ft
Pravděpodobnost 40% :
Dočasný
od 19 v 18 UTC do 20 v 09 UTC
Viditelnost: 6000 m
Polojasno ve výšce 1000 ft
slabé dešťové přeháňky

TAF: FHAW 191330Z 1915/2009 14014KT 9999 FEW018 SCT035 TEMPO 1915/1918 SCT018 PROB40 TEMPO 1918/2009 6000 -SHRA SCT010

Stav a předpovědi počasí z více než 4 000 letišť (zprávy METAR a TAF).

Červené a žluté tečky na mapě představují dostupné meteorologické stanice.

Když kurzor umístíte na tečku, zobrazí se název stanice.

Pak kliknutím zobrazíte stav a předpověď počasí.

Chcete-li změnit mapu, kliknutím na zelené tlačítko se znaménkem +mapu přiblížíte, kliknutím na zelené tlačítko se znaménkem – mapu oddálíte a kliknutím na zelené šipky přejdete na sousední mapy.


METAR-TAF: